Capelle aan den IJssel, Netherlands
Current Conditions -  °F | °C
As of 7:55 AM on Friday 19 Dec 2014 (Local Time) from EHRD Reporting Station
Rain Showers Rain Showers  
Wind Chill: 54°   Ceiling: 900
Heat Index: 54°   Visibility: 5mi
Dew Point: 52°   Wind: 26mph
Humidity: 94%   Direction: 230°SW
Pressure: 29.74"   Gusts: 39mph
Location:  51.93°N, 4.58°E
Report Text: EHRD 190655Z AUTO 23023G34KT 200V260 8000 SHRA FEW007 BKN009BKN010 BKN015CB 12/11 Q1007 TEMPO 4000
Loading
Personal Weather Stations






























Interactive Weather Map New forecast layout! Learn more

10-Day Weather Forecast

Advertisements
Track Severe Weather on mobile